Enter the Airport ICAO Code

Search by Airport or City

Current Weather

SCDA | Diego Aracena International Airport

Iquique, Chile

Last Update 56 Minutes Ago

Completely Cloudy Sky

Temperature of 17 ºC

Light Winds from South

Temperature

17 ºC

Dew Point Temperature

09 ºC

Relative Humidity

59.42 %

Wind Direction

South (180º, Ranging from 130º to 260º)

Wind Velocity

6 km/h (03 kt)

Gusts

None

Visibility

Greater than 10 Kilometers

Sea Level Pressure

1016 hPa (Hectopascals)

Layers of Clouds

90% to 100% of Sky Covered from 975 mts (3200 ft) Above Ground Level.

METAR SCDA 121500Z 18003KT 130V260 9999 OVC032 17/09 Q1016

Weather Forecast

SCDA | Diego Aracena International Airport

Iquique, Chile

Forecast valid for the next 20 Hours

In the next hour it is expected the begining of:

Clear Sky

Light to Moderate Winds from SouthWest

In 6 to 8 hours it is expected the begining of:

Completely Cloudy Sky

Moderate Winds from South

Maximum Temperature

18 ºC in 2 Hours

Minimum Temperature

16 ºC in 14 Hours

TAF SCDA 121032Z 1212/1312 17004KT 9999 OVC025 TX18/1218Z TN16/1306Z BECMG 1215/1217 24008KT CAVOK BECMG 1222/1224 20010KT OVC028